sensor_id;sensor_type;location;lat;lon;timestamp;pressure;altitude;pressure_sealevel;temperature;humidity
33161;BME280;19522;45.656;11.302;2023-06-22T00:01:09;98735.34;;;23.74;85.20
33161;BME280;19522;45.656;11.302;2023-06-22T00:03:34;98729.28;;;23.82;84.34
33161;BME280;19522;45.656;11.302;2023-06-22T00:06:00;98728.19;;;23.78;83.62
33161;BME280;19522;45.656;11.302;2023-06-22T00:08:25;98728.47;;;23.81;82.83
33161;BME280;19522;45.656;11.302;2023-06-22T00:10:51;98723.09;;;23.64;83.44
33161;BME280;19522;45.656;11.302;2023-06-22T00:13:17;98742.25;;;23.66;83.43
33161;BME280;19522;45.656;11.302;2023-06-22T00:15:43;98734.66;;;23.51;84.84
33161;BME280;19522;45.656;11.302;2023-06-22T00:18:10;98730.75;;;23.52;84.75
33161;BME280;19522;45.656;11.302;2023-06-22T00:20:36;98733.59;;;23.57;83.85
33161;BME280;19522;45.656;11.302;2023-06-22T00:23:06;98730.28;;;23.60;84.68
33161;BME280;19522;45.656;11.302;2023-06-22T00:25:40;98727.53;;;23.60;85.03
33161;BME280;19522;45.656;11.302;2023-06-22T00:28:06;98726.94;;;23.58;86.99
33161;BME280;19522;45.656;11.302;2023-06-22T00:30:33;98728.56;;;23.54;86.11
33161;BME280;19522;45.656;11.302;2023-06-22T00:32:59;98729.34;;;23.44;84.92
33161;BME280;19522;45.656;11.302;2023-06-22T00:35:26;98721.06;;;23.49;84.36
33161;BME280;19522;45.656;11.302;2023-06-22T00:37:58;98710.88;;;23.60;83.02
33161;BME280;19522;45.656;11.302;2023-06-22T00:40:32;98701.44;;;23.61;82.91
33161;BME280;19522;45.656;11.302;2023-06-22T00:43:01;98682.84;;;23.57;83.82
33161;BME280;19522;45.656;11.302;2023-06-22T00:45:27;98705.03;;;23.57;85.67
33161;BME280;19522;45.656;11.302;2023-06-22T00:47:56;98679.19;;;23.46;86.02
33161;BME280;19522;45.656;11.302;2023-06-22T00:50:24;98694.84;;;23.68;85.52
33161;BME280;19522;45.656;11.302;2023-06-22T00:52:52;98699.06;;;23.75;84.17
33161;BME280;19522;45.656;11.302;2023-06-22T00:55:20;98689.78;;;23.54;85.58
33161;BME280;19522;45.656;11.302;2023-06-22T00:57:46;98696.41;;;23.48;86.00
33161;BME280;19522;45.656;11.302;2023-06-22T01:00:14;98697.47;;;23.42;85.72
33161;BME280;19522;45.656;11.302;2023-06-22T01:02:42;98672.94;;;23.23;85.05
33161;BME280;19522;45.656;11.302;2023-06-22T01:05:17;98691.16;;;23.52;83.98
33161;BME280;19522;45.656;11.302;2023-06-22T01:14:30;98680.00;;;23.41;85.68
33161;BME280;19522;45.656;11.302;2023-06-22T01:16:37;98685.91;;;23.55;85.38
33161;BME280;19522;45.656;11.302;2023-06-22T01:22:03;98678.09;;;23.47;86.83
33161;BME280;19522;45.656;11.302;2023-06-22T01:24:33;98678.91;;;23.47;85.47
33161;BME280;19522;45.656;11.302;2023-06-22T01:29:56;98670.56;;;23.37;86.12
33161;BME280;19522;45.656;11.302;2023-06-22T01:32:33;98668.56;;;23.32;86.94
33161;BME280;19522;45.656;11.302;2023-06-22T01:35:01;98676.88;;;23.32;87.68
33161;BME280;19522;45.656;11.302;2023-06-22T01:37:28;98676.94;;;23.38;87.33
33161;BME280;19522;45.656;11.302;2023-06-22T01:39:55;98666.88;;;23.26;87.90
33161;BME280;19522;45.656;11.302;2023-06-22T01:42:24;98676.88;;;23.32;88.27
33161;BME280;19522;45.656;11.302;2023-06-22T01:44:53;98663.31;;;23.31;87.93
33161;BME280;19522;45.656;11.302;2023-06-22T01:47:23;98675.47;;;23.30;89.63
33161;BME280;19522;45.656;11.302;2023-06-22T01:49:50;98683.56;;;23.37;89.13
33161;BME280;19522;45.656;11.302;2023-06-22T01:52:17;98654.56;;;23.12;89.29
33161;BME280;19522;45.656;11.302;2023-06-22T01:54:43;98685.16;;;23.22;88.42
33161;BME280;19522;45.656;11.302;2023-06-22T01:57:08;98680.69;;;23.21;88.54
33161;BME280;19522;45.656;11.302;2023-06-22T01:59:53;98665.38;;;23.13;88.01
33161;BME280;19522;45.656;11.302;2023-06-22T02:02:22;98683.56;;;23.31;88.22
33161;BME280;19522;45.656;11.302;2023-06-22T02:04:58;98686.91;;;23.39;88.89
33161;BME280;19522;45.656;11.302;2023-06-22T02:07:29;98691.53;;;23.28;91.49
33161;BME280;19522;45.656;11.302;2023-06-22T02:09:58;98690.41;;;23.24;92.28
33161;BME280;19522;45.656;11.302;2023-06-22T02:12:25;98678.53;;;23.28;90.99
33161;BME280;19522;45.656;11.302;2023-06-22T02:14:56;98710.25;;;23.48;90.89
33161;BME280;19522;45.656;11.302;2023-06-22T02:17:22;98700.25;;;23.47;90.65
33161;BME280;19522;45.656;11.302;2023-06-22T02:19:48;98694.66;;;23.37;91.28
33161;BME280;19522;45.656;11.302;2023-06-22T02:22:14;98697.41;;;23.31;91.15
33161;BME280;19522;45.656;11.302;2023-06-22T02:24:39;98697.34;;;23.26;90.65
33161;BME280;19522;45.656;11.302;2023-06-22T02:27:05;98680.28;;;23.07;90.36
33161;BME280;19522;45.656;11.302;2023-06-22T02:29:32;98691.81;;;23.26;90.10
33161;BME280;19522;45.656;11.302;2023-06-22T02:31:58;98670.44;;;23.22;89.50
33161;BME280;19522;45.656;11.302;2023-06-22T02:34:23;98692.53;;;23.49;88.71
33161;BME280;19522;45.656;11.302;2023-06-22T02:36:49;98689.47;;;23.50;88.78
33161;BME280;19522;45.656;11.302;2023-06-22T02:39:23;98662.41;;;23.20;90.10
33161;BME280;19522;45.656;11.302;2023-06-22T02:41:49;98694.88;;;23.30;90.47
33161;BME280;19522;45.656;11.302;2023-06-22T02:44:15;98689.25;;;23.19;90.68
33161;BME280;19522;45.656;11.302;2023-06-22T02:46:41;98669.94;;;22.92;91.90
33161;BME280;19522;45.656;11.302;2023-06-22T02:49:07;98688.03;;;23.05;92.52
33161;BME280;19522;45.656;11.302;2023-06-22T02:51:34;98692.16;;;23.02;92.91
33161;BME280;19522;45.656;11.302;2023-06-22T02:54:00;98691.41;;;23.12;91.88
33161;BME280;19522;45.656;11.302;2023-06-22T02:56:25;98684.81;;;23.18;91.22
33161;BME280;19522;45.656;11.302;2023-06-22T02:58:51;98672.31;;;23.16;90.66
33161;BME280;19522;45.656;11.302;2023-06-22T03:01:17;98686.53;;;23.25;91.65
33161;BME280;19522;45.656;11.302;2023-06-22T03:03:50;98685.91;;;23.17;91.59
33161;BME280;19522;45.656;11.302;2023-06-22T03:06:19;98676.19;;;23.15;91.53
33161;BME280;19522;45.656;11.302;2023-06-22T03:08:51;98694.75;;;23.14;92.14
33161;BME280;19522;45.656;11.302;2023-06-22T03:11:16;98679.44;;;23.07;92.18
33161;BME280;19522;45.656;11.302;2023-06-22T03:13:42;98697.88;;;23.23;91.38
33161;BME280;19522;45.656;11.302;2023-06-22T03:16:08;98698.41;;;23.20;90.93
33161;BME280;19522;45.656;11.302;2023-06-22T03:18:33;98695.56;;;23.15;91.52
33161;BME280;19522;45.656;11.302;2023-06-22T03:20:59;98661.03;;;22.90;92.09
33161;BME280;19522;45.656;11.302;2023-06-22T03:23:27;98684.41;;;23.04;92.21
33161;BME280;19522;45.656;11.302;2023-06-22T03:25:52;98692.78;;;23.10;92.14
33161;BME280;19522;45.656;11.302;2023-06-22T03:28:24;98692.69;;;22.99;93.94
33161;BME280;19522;45.656;11.302;2023-06-22T03:30:49;98689.84;;;22.94;94.61
33161;BME280;19522;45.656;11.302;2023-06-22T03:33:15;98694.94;;;23.02;93.82
33161;BME280;19522;45.656;11.302;2023-06-22T03:35:40;98687.75;;;23.07;93.86
33161;BME280;19522;45.656;11.302;2023-06-22T03:38:06;98695.03;;;23.13;93.44
33161;BME280;19522;45.656;11.302;2023-06-22T03:40:31;98651.47;;;22.70;95.29
33161;BME280;19522;45.656;11.302;2023-06-22T03:42:57;98702.75;;;23.11;94.36
33161;BME280;19522;45.656;11.302;2023-06-22T03:45:22;98698.91;;;23.17;93.69
33161;BME280;19522;45.656;11.302;2023-06-22T03:47:48;98677.28;;;23.14;92.47
33161;BME280;19522;45.656;11.302;2023-06-22T03:50:13;98677.56;;;23.12;94.60
33161;BME280;19522;45.656;11.302;2023-06-22T03:52:40;98683.88;;;23.08;96.25
33161;BME280;19522;45.656;11.302;2023-06-22T03:55:06;98680.53;;;23.06;96.66
33161;BME280;19522;45.656;11.302;2023-06-22T03:57:32;98653.47;;;22.80;96.88
33161;BME280;19522;45.656;11.302;2023-06-22T03:59:58;98670.81;;;22.98;96.98
33161;BME280;19522;45.656;11.302;2023-06-22T04:02:24;98669.94;;;22.97;96.79
33161;BME280;19522;45.656;11.302;2023-06-22T04:04:50;98682.22;;;23.07;96.19
33161;BME280;19522;45.656;11.302;2023-06-22T04:07:15;98671.72;;;23.14;95.50
33161;BME280;19522;45.656;11.302;2023-06-22T04:09:41;98675.41;;;23.19;95.44
33161;BME280;19522;45.656;11.302;2023-06-22T04:12:09;98649.47;;;22.98;96.12
33161;BME280;19522;45.656;11.302;2023-06-22T04:14:38;98675.88;;;23.11;95.40
33161;BME280;19522;45.656;11.302;2023-06-22T04:17:04;98682.78;;;23.09;94.73
33161;BME280;19522;45.656;11.302;2023-06-22T04:19:32;98689.13;;;23.04;95.00
33161;BME280;19522;45.656;11.302;2023-06-22T04:21:58;98679.63;;;22.95;95.64
33161;BME280;19522;45.656;11.302;2023-06-22T04:24:23;98684.06;;;22.96;95.78
33161;BME280;19522;45.656;11.302;2023-06-22T04:26:49;98668.13;;;23.08;95.50
33161;BME280;19522;45.656;11.302;2023-06-22T04:29:19;98667.09;;;23.19;94.75
33161;BME280;19522;45.656;11.302;2023-06-22T04:31:44;98661.84;;;23.23;95.63
33161;BME280;19522;45.656;11.302;2023-06-22T04:34:09;98666.66;;;23.33;94.98
33161;BME280;19522;45.656;11.302;2023-06-22T04:36:40;98654.25;;;23.41;93.80
33161;BME280;19522;45.656;11.302;2023-06-22T04:39:07;98659.28;;;23.54;92.70
33161;BME280;19522;45.656;11.302;2023-06-22T04:41:36;98662.41;;;23.63;92.45
33161;BME280;19522;45.656;11.302;2023-06-22T04:44:20;98659.56;;;23.58;92.33
33161;BME280;19522;45.656;11.302;2023-06-22T04:46:51;98672.16;;;23.81;91.61
33161;BME280;19522;45.656;11.302;2023-06-22T04:49:20;98656.63;;;23.75;92.14
33161;BME280;19522;45.656;11.302;2023-06-22T04:51:46;98638.25;;;23.63;92.32
33161;BME280;19522;45.656;11.302;2023-06-22T04:54:11;98653.84;;;23.70;90.21
33161;BME280;19522;45.656;11.302;2023-06-22T04:56:37;98655.00;;;23.79;89.35
33161;BME280;19522;45.656;11.302;2023-06-22T04:59:06;98647.25;;;23.91;89.01
33161;BME280;19522;45.656;11.302;2023-06-22T05:01:32;98657.06;;;24.04;88.80
33161;BME280;19522;45.656;11.302;2023-06-22T05:03:58;98650.94;;;24.02;87.76
33161;BME280;19522;45.656;11.302;2023-06-22T05:06:26;98657.09;;;24.20;87.57
33161;BME280;19522;45.656;11.302;2023-06-22T05:08:56;98661.84;;;24.30;87.45
33161;BME280;19522;45.656;11.302;2023-06-22T05:11:28;98676.84;;;24.29;87.99
33161;BME280;19522;45.656;11.302;2023-06-22T05:13:54;98659.84;;;24.15;88.58
33161;BME280;19522;45.656;11.302;2023-06-22T05:16:21;98652.41;;;24.25;89.61
33161;BME280;19522;45.656;11.302;2023-06-22T05:18:53;98663.22;;;24.27;90.06
33161;BME280;19522;45.656;11.302;2023-06-22T05:21:23;98659.09;;;24.35;88.83
33161;BME280;19522;45.656;11.302;2023-06-22T05:23:50;98642.97;;;24.32;87.25
33161;BME280;19522;45.656;11.302;2023-06-22T05:26:15;98665.16;;;24.32;87.83
33161;BME280;19522;45.656;11.302;2023-06-22T05:28:41;98652.16;;;24.32;86.79
33161;BME280;19522;45.656;11.302;2023-06-22T05:31:07;98660.22;;;24.49;85.92
33161;BME280;19522;45.656;11.302;2023-06-22T05:33:32;98658.56;;;24.58;85.48
33161;BME280;19522;45.656;11.302;2023-06-22T05:35:58;98658.34;;;24.70;85.21
33161;BME280;19522;45.656;11.302;2023-06-22T05:38:24;98650.53;;;24.72;85.07
33161;BME280;19522;45.656;11.302;2023-06-22T05:40:49;98665.84;;;24.91;85.52
33161;BME280;19522;45.656;11.302;2023-06-22T05:43:18;98663.59;;;24.98;85.92
33161;BME280;19522;45.656;11.302;2023-06-22T05:45:43;98642.50;;;24.97;85.96
33161;BME280;19522;45.656;11.302;2023-06-22T05:48:08;98654.72;;;25.01;86.44
33161;BME280;19522;45.656;11.302;2023-06-22T05:50:34;98615.31;;;24.73;85.78
33161;BME280;19522;45.656;11.302;2023-06-22T05:52:59;98641.13;;;24.94;84.04
33161;BME280;19522;45.656;11.302;2023-06-22T05:55:30;98661.94;;;25.12;82.84
33161;BME280;19522;45.656;11.302;2023-06-22T05:57:56;98666.09;;;25.25;82.81
33161;BME280;19522;45.656;11.302;2023-06-22T06:00:21;98657.47;;;25.27;82.14
33161;BME280;19522;45.656;11.302;2023-06-22T06:02:48;98659.72;;;25.40;82.31
33161;BME280;19522;45.656;11.302;2023-06-22T06:05:14;98661.91;;;25.54;81.65
33161;BME280;19522;45.656;11.302;2023-06-22T06:07:43;98659.13;;;25.54;81.25
33161;BME280;19522;45.656;11.302;2023-06-22T06:10:09;98649.66;;;25.60;81.29
33161;BME280;19522;45.656;11.302;2023-06-22T06:12:35;98644.66;;;25.62;81.02
33161;BME280;19522;45.656;11.302;2023-06-22T06:15:01;98655.66;;;25.88;80.86
33161;BME280;19522;45.656;11.302;2023-06-22T06:17:27;98625.38;;;25.86;80.09
33161;BME280;19522;45.656;11.302;2023-06-22T06:19:52;98648.63;;;26.11;79.64
33161;BME280;19522;45.656;11.302;2023-06-22T06:22:18;98647.16;;;26.24;79.22
33161;BME280;19522;45.656;11.302;2023-06-22T06:24:45;98652.72;;;26.29;79.06
33161;BME280;19522;45.656;11.302;2023-06-22T06:27:10;98653.78;;;26.38;78.60
33161;BME280;19522;45.656;11.302;2023-06-22T06:29:36;98634.31;;;26.33;79.23
33161;BME280;19522;45.656;11.302;2023-06-22T06:32:01;98627.06;;;26.32;79.17
33161;BME280;19522;45.656;11.302;2023-06-22T06:34:27;98650.25;;;26.62;78.19
33161;BME280;19522;45.656;11.302;2023-06-22T06:36:52;98644.88;;;26.76;78.22
33161;BME280;19522;45.656;11.302;2023-06-22T06:39:18;98640.66;;;26.84;77.93
33161;BME280;19522;45.656;11.302;2023-06-22T06:41:44;98648.84;;;27.04;77.45
33161;BME280;19522;45.656;11.302;2023-06-22T06:44:09;98650.44;;;27.16;76.79
33161;BME280;19522;45.656;11.302;2023-06-22T06:46:34;98646.16;;;27.24;77.10
33161;BME280;19522;45.656;11.302;2023-06-22T06:49:00;98617.56;;;27.13;76.46
33161;BME280;19522;45.656;11.302;2023-06-22T06:51:25;98640.97;;;27.41;74.91
33161;BME280;19522;45.656;11.302;2023-06-22T06:53:51;98630.66;;;27.42;74.05
33161;BME280;19522;45.656;11.302;2023-06-22T06:56:17;98640.16;;;27.65;73.80
33161;BME280;19522;45.656;11.302;2023-06-22T06:58:42;98640.94;;;27.71;73.55
33161;BME280;19522;45.656;11.302;2023-06-22T07:01:08;98643.19;;;27.68;73.07
33161;BME280;19522;45.656;11.302;2023-06-22T07:03:34;98640.28;;;27.79;72.84
33161;BME280;19522;45.656;11.302;2023-06-22T07:06:00;98633.00;;;27.83;71.93
33161;BME280;19522;45.656;11.302;2023-06-22T07:08:25;98634.81;;;27.93;70.92
33161;BME280;19522;45.656;11.302;2023-06-22T07:10:52;98611.94;;;27.72;71.44
33161;BME280;19522;45.656;11.302;2023-06-22T07:13:17;98634.00;;;27.92;74.22
33161;BME280;19522;45.656;11.302;2023-06-22T07:15:43;98638.13;;;27.95;74.57
33161;BME280;19522;45.656;11.302;2023-06-22T07:18:12;98605.16;;;27.78;73.59
33161;BME280;19522;45.656;11.302;2023-06-22T07:20:37;98627.34;;;27.88;74.17
33161;BME280;19522;45.656;11.302;2023-06-22T07:23:04;98626.38;;;27.98;72.04
33161;BME280;19522;45.656;11.302;2023-06-22T07:25:30;98599.75;;;27.87;72.69
33161;BME280;19522;45.656;11.302;2023-06-22T07:28:06;98619.63;;;28.23;71.74
33161;BME280;19522;45.656;11.302;2023-06-22T07:30:32;98624.69;;;28.40;71.59
33161;BME280;19522;45.656;11.302;2023-06-22T07:32:58;98625.88;;;28.53;70.72
33161;BME280;19522;45.656;11.302;2023-06-22T07:35:29;98609.75;;;28.50;70.21
33161;BME280;19522;45.656;11.302;2023-06-22T07:37:54;98621.63;;;27.98;71.00
33161;BME280;19522;45.656;11.302;2023-06-22T07:40:20;98592.16;;;27.68;73.13
33161;BME280;19522;45.656;11.302;2023-06-22T07:42:46;98607.63;;;28.04;72.81
33161;BME280;19522;45.656;11.302;2023-06-22T07:45:13;98595.72;;;28.36;72.37
33161;BME280;19522;45.656;11.302;2023-06-22T07:47:39;98593.97;;;28.59;71.04
33161;BME280;19522;45.656;11.302;2023-06-22T07:50:05;98594.47;;;28.81;69.62
33161;BME280;19522;45.656;11.302;2023-06-22T07:52:31;98584.03;;;28.86;69.01
33161;BME280;19522;45.656;11.302;2023-06-22T07:54:57;98604.38;;;29.06;66.72
33161;BME280;19522;45.656;11.302;2023-06-22T07:57:22;98587.41;;;29.02;66.98
33161;BME280;19522;45.656;11.302;2023-06-22T07:59:48;98607.59;;;29.13;66.59
33161;BME280;19522;45.656;11.302;2023-06-22T08:02:14;98605.41;;;29.10;66.29
33161;BME280;19522;45.656;11.302;2023-06-22T08:04:41;98602.94;;;29.08;64.38
33161;BME280;19522;45.656;11.302;2023-06-22T08:07:07;98589.69;;;29.14;64.74
33161;BME280;19522;45.656;11.302;2023-06-22T08:09:33;98604.44;;;29.34;64.23
33161;BME280;19522;45.656;11.302;2023-06-22T08:11:58;98609.25;;;29.47;64.31
33161;BME280;19522;45.656;11.302;2023-06-22T08:14:29;98604.88;;;29.55;62.17
33161;BME280;19522;45.656;11.302;2023-06-22T08:16:54;98593.84;;;29.31;59.75
33161;BME280;19522;45.656;11.302;2023-06-22T08:19:20;98616.06;;;29.41;63.40
33161;BME280;19522;45.656;11.302;2023-06-22T08:21:48;98606.84;;;29.07;63.73
33161;BME280;19522;45.656;11.302;2023-06-22T08:24:14;98603.53;;;29.05;62.39
33161;BME280;19522;45.656;11.302;2023-06-22T08:26:39;98610.03;;;29.01;62.86
33161;BME280;19522;45.656;11.302;2023-06-22T08:29:05;98605.84;;;29.17;63.65
33161;BME280;19522;45.656;11.302;2023-06-22T08:31:31;98606.44;;;29.33;64.05
33161;BME280;19522;45.656;11.302;2023-06-22T08:33:58;98615.84;;;29.51;66.78
33161;BME280;19522;45.656;11.302;2023-06-22T08:36:24;98613.06;;;29.51;63.28
33161;BME280;19522;45.656;11.302;2023-06-22T08:38:50;98604.25;;;29.44;60.85
33161;BME280;19522;45.656;11.302;2023-06-22T08:41:17;98608.59;;;29.36;60.38
33161;BME280;19522;45.656;11.302;2023-06-22T08:43:43;98609.44;;;29.37;60.63
33161;BME280;19522;45.656;11.302;2023-06-22T08:46:10;98589.47;;;29.11;61.12
33161;BME280;19522;45.656;11.302;2023-06-22T08:48:35;98608.53;;;29.22;65.48
33161;BME280;19522;45.656;11.302;2023-06-22T08:51:04;98613.22;;;29.27;61.40
33161;BME280;19522;45.656;11.302;2023-06-22T08:53:30;98609.22;;;29.33;64.20
33161;BME280;19522;45.656;11.302;2023-06-22T08:55:55;98609.25;;;29.47;63.81
33161;BME280;19522;45.656;11.302;2023-06-22T08:58:21;98600.41;;;29.68;63.35
33161;BME280;19522;45.656;11.302;2023-06-22T09:00:47;98583.75;;;29.63;62.00
33161;BME280;19522;45.656;11.302;2023-06-22T09:03:13;98606.13;;;29.77;60.69
33161;BME280;19522;45.656;11.302;2023-06-22T09:05:39;98599.91;;;29.66;60.16
33161;BME280;19522;45.656;11.302;2023-06-22T09:08:04;98570.69;;;29.58;61.28
33161;BME280;19522;45.656;11.302;2023-06-22T09:10:30;98603.09;;;29.87;60.73
33161;BME280;19522;45.656;11.302;2023-06-22T09:12:56;98602.97;;;30.06;61.24
33161;BME280;19522;45.656;11.302;2023-06-22T09:15:22;98589.22;;;30.10;57.15
33161;BME280;19522;45.656;11.302;2023-06-22T09:17:48;98585.84;;;30.22;57.89
33161;BME280;19522;45.656;11.302;2023-06-22T09:20:14;98555.38;;;30.06;55.49
33161;BME280;19522;45.656;11.302;2023-06-22T09:22:40;98599.63;;;30.32;58.25
33161;BME280;19522;45.656;11.302;2023-06-22T09:27:49;98587.44;;;30.00;57.36
33161;BME280;19522;45.656;11.302;2023-06-22T09:30:15;98594.28;;;30.08;58.13
33161;BME280;19522;45.656;11.302;2023-06-22T09:32:40;98594.13;;;30.27;58.56
33161;BME280;19522;45.656;11.302;2023-06-22T09:35:26;98604.13;;;30.56;58.91
33161;BME280;19522;45.656;11.302;2023-06-22T09:37:51;98578.41;;;30.54;57.85
33161;BME280;19522;45.656;11.302;2023-06-22T09:40:17;98595.00;;;30.73;55.42
33161;BME280;19522;45.656;11.302;2023-06-22T09:42:42;98588.44;;;30.77;55.21
33161;BME280;19522;45.656;11.302;2023-06-22T09:45:08;98581.19;;;30.76;56.04
33161;BME280;19522;45.656;11.302;2023-06-22T09:47:34;98590.75;;;30.75;58.02
33161;BME280;19522;45.656;11.302;2023-06-22T09:49:59;98584.91;;;30.63;56.53
33161;BME280;19522;45.656;11.302;2023-06-22T09:52:25;98585.22;;;30.61;56.16
33161;BME280;19522;45.656;11.302;2023-06-22T09:54:51;98584.28;;;30.29;57.33
33161;BME280;19522;45.656;11.302;2023-06-22T09:57:16;98589.25;;;29.96;57.75
33161;BME280;19522;45.656;11.302;2023-06-22T09:59:42;98582.91;;;30.04;56.35
33161;BME280;19522;45.656;11.302;2023-06-22T10:02:08;98579.41;;;30.21;58.84
33161;BME280;19522;45.656;11.302;2023-06-22T10:04:34;98574.78;;;30.39;55.92
33161;BME280;19522;45.656;11.302;2023-06-22T10:07:00;98582.22;;;30.58;56.18
33161;BME280;19522;45.656;11.302;2023-06-22T10:09:26;98576.44;;;30.54;55.97
33161;BME280;19522;45.656;11.302;2023-06-22T10:11:52;98584.69;;;30.82;55.21
33161;BME280;19522;45.656;11.302;2023-06-22T10:14:17;98564.06;;;30.55;53.38
33161;BME280;19522;45.656;11.302;2023-06-22T10:16:43;98570.25;;;30.66;54.80
33161;BME280;19522;45.656;11.302;2023-06-22T10:19:08;98585.31;;;30.79;55.13
33161;BME280;19522;45.656;11.302;2023-06-22T10:21:34;98597.03;;;30.81;53.87
33161;BME280;19522;45.656;11.302;2023-06-22T10:23:59;98595.88;;;31.05;53.71
33161;BME280;19522;45.656;11.302;2023-06-22T10:26:32;98589.84;;;31.12;53.58
33161;BME280;19522;45.656;11.302;2023-06-22T10:28:57;98598.38;;;31.06;53.41
33161;BME280;19522;45.656;11.302;2023-06-22T10:31:23;98566.50;;;31.02;53.53
33161;BME280;19522;45.656;11.302;2023-06-22T10:33:48;98587.25;;;31.15;54.87
33161;BME280;19522;45.656;11.302;2023-06-22T10:36:15;98579.97;;;31.14;56.11
33161;BME280;19522;45.656;11.302;2023-06-22T10:38:40;98569.06;;;31.13;54.94
33161;BME280;19522;45.656;11.302;2023-06-22T10:41:06;98565.22;;;31.08;53.40
33161;BME280;19522;45.656;11.302;2023-06-22T10:43:31;98554.47;;;31.02;52.33
33161;BME280;19522;45.656;11.302;2023-06-22T10:45:57;98542.19;;;30.89;54.02
33161;BME280;19522;45.656;11.302;2023-06-22T10:48:22;98562.63;;;31.12;55.10
33161;BME280;19522;45.656;11.302;2023-06-22T10:50:48;98551.47;;;31.21;55.40
33161;BME280;19522;45.656;11.302;2023-06-22T10:53:13;98547.94;;;31.47;57.73
33161;BME280;19522;45.656;11.302;2023-06-22T10:55:42;98553.06;;;31.62;58.25
33161;BME280;19522;45.656;11.302;2023-06-22T10:58:07;98551.81;;;31.77;55.63
33161;BME280;19522;45.656;11.302;2023-06-22T11:00:33;98547.69;;;31.75;54.57
33161;BME280;19522;45.656;11.302;2023-06-22T11:02:58;98553.81;;;31.77;54.53
33161;BME280;19522;45.656;11.302;2023-06-22T11:05:24;98545.66;;;31.66;56.68
33161;BME280;19522;45.656;11.302;2023-06-22T11:07:49;98551.81;;;31.77;54.93
33161;BME280;19522;45.656;11.302;2023-06-22T11:10:15;98549.53;;;31.79;54.71
33161;BME280;19522;45.656;11.302;2023-06-22T11:12:41;98551.28;;;31.66;54.46
33161;BME280;19522;45.656;11.302;2023-06-22T11:15:08;98564.06;;;31.90;53.97
33161;BME280;19522;45.656;11.302;2023-06-22T11:17:34;98539.50;;;32.05;54.10
33161;BME280;19522;45.656;11.302;2023-06-22T11:19:59;98555.50;;;32.13;54.48
33161;BME280;19522;45.656;11.302;2023-06-22T11:22:25;98523.97;;;32.16;54.27
33161;BME280;19522;45.656;11.302;2023-06-22T11:24:51;98529.59;;;32.34;52.14
33161;BME280;19522;45.656;11.302;2023-06-22T11:27:16;98540.84;;;32.34;51.46
33161;BME280;19522;45.656;11.302;2023-06-22T11:29:42;98535.22;;;32.34;51.86
33161;BME280;19522;45.656;11.302;2023-06-22T11:32:08;98533.22;;;32.43;51.78
33161;BME280;19522;45.656;11.302;2023-06-22T11:34:33;98536.69;;;32.40;50.97
33161;BME280;19522;45.656;11.302;2023-06-22T11:36:59;98534.22;;;32.56;51.07
33161;BME280;19522;45.656;11.302;2023-06-22T11:39:25;98531.06;;;32.40;50.61
33161;BME280;19522;45.656;11.302;2023-06-22T11:41:50;98526.94;;;32.28;50.84
33161;BME280;19522;45.656;11.302;2023-06-22T11:44:16;98533.72;;;32.36;52.47
33161;BME280;19522;45.656;11.302;2023-06-22T11:46:41;98509.59;;;32.44;50.45
33161;BME280;19522;45.656;11.302;2023-06-22T11:49:09;98519.31;;;32.73;50.62
33161;BME280;19522;45.656;11.302;2023-06-22T11:51:35;98527.22;;;32.88;53.20
33161;BME280;19522;45.656;11.302;2023-06-22T11:54:00;98513.28;;;33.01;52.14
33161;BME280;19522;45.656;11.302;2023-06-22T11:56:27;98515.59;;;33.07;50.54
33161;BME280;19522;45.656;11.302;2023-06-22T11:58:53;98497.22;;;33.01;48.29
33161;BME280;19522;45.656;11.302;2023-06-22T12:01:19;98504.63;;;33.15;48.20
33161;BME280;19522;45.656;11.302;2023-06-22T12:03:44;98499.34;;;33.13;50.69
33161;BME280;19522;45.656;11.302;2023-06-22T12:06:10;98495.47;;;33.27;50.02
33161;BME280;19522;45.656;11.302;2023-06-22T12:08:36;98487.69;;;32.93;47.37
33161;BME280;19522;45.656;11.302;2023-06-22T12:11:02;98494.00;;;32.64;47.19
33161;BME280;19522;45.656;11.302;2023-06-22T12:13:28;98502.56;;;32.85;49.30
33161;BME280;19522;45.656;11.302;2023-06-22T12:15:53;98481.00;;;33.07;49.77
33161;BME280;19522;45.656;11.302;2023-06-22T12:18:19;98499.50;;;33.17;49.28
33161;BME280;19522;45.656;11.302;2023-06-22T12:20:46;98454.28;;;33.22;49.65
33161;BME280;19522;45.656;11.302;2023-06-22T12:23:12;98478.59;;;33.27;47.48
33161;BME280;19522;45.656;11.302;2023-06-22T12:25:38;98472.28;;;33.30;46.40
33161;BME280;19522;45.656;11.302;2023-06-22T12:28:03;98468.19;;;33.27;44.81
33161;BME280;19522;45.656;11.302;2023-06-22T12:30:30;98476.81;;;33.52;45.63
33161;BME280;19522;45.656;11.302;2023-06-22T12:32:55;98474.31;;;33.80;47.22
33161;BME280;19522;45.656;11.302;2023-06-22T12:35:21;98473.44;;;33.89;44.62
33161;BME280;19522;45.656;11.302;2023-06-22T12:37:47;98450.22;;;33.92;48.19
33161;BME280;19522;45.656;11.302;2023-06-22T12:40:12;98467.66;;;34.06;44.80
33161;BME280;19522;45.656;11.302;2023-06-22T12:42:38;98467.97;;;33.41;43.28
33161;BME280;19522;45.656;11.302;2023-06-22T12:45:04;98471.75;;;33.06;44.06
33161;BME280;19522;45.656;11.302;2023-06-22T12:47:30;98477.13;;;32.73;44.83
33161;BME280;19522;45.656;11.302;2023-06-22T12:49:59;98463.41;;;32.80;45.72
33161;BME280;19522;45.656;11.302;2023-06-22T12:52:25;98463.63;;;33.05;43.68
33161;BME280;19522;45.656;11.302;2023-06-22T12:54:50;98451.81;;;33.20;43.99
33161;BME280;19522;45.656;11.302;2023-06-22T12:57:17;98444.66;;;33.32;45.82
33161;BME280;19522;45.656;11.302;2023-06-22T12:59:44;98451.22;;;33.66;46.07
33161;BME280;19522;45.656;11.302;2023-06-22T13:02:10;98450.22;;;33.92;44.69